sensor_id;sensor_type;location;lat;lon;timestamp;temperature;humidity
31991;DHT22;18508;49.386;8.370;2023-04-01T00:01:16;10.50;99.90
31991;DHT22;18508;49.386;8.370;2023-04-01T00:03:45;10.50;99.90
31991;DHT22;18508;49.386;8.370;2023-04-01T00:06:16;10.50;99.90
31991;DHT22;18508;49.386;8.370;2023-04-01T00:08:44;10.50;99.90
31991;DHT22;18508;49.386;8.370;2023-04-01T00:11:13;10.50;99.90
31991;DHT22;18508;49.386;8.370;2023-04-01T00:13:42;10.50;99.90
31991;DHT22;18508;49.386;8.370;2023-04-01T00:16:11;10.50;99.90
31991;DHT22;18508;49.386;8.370;2023-04-01T00:18:50;10.50;99.90
31991;DHT22;18508;49.386;8.370;2023-04-01T00:21:19;10.50;99.90
31991;DHT22;18508;49.386;8.370;2023-04-01T00:23:49;10.40;99.90
31991;DHT22;18508;49.386;8.370;2023-04-01T00:26:17;10.50;99.90
31991;DHT22;18508;49.386;8.370;2023-04-01T00:28:47;10.50;99.90
31991;DHT22;18508;49.386;8.370;2023-04-01T00:31:15;10.50;99.90
31991;DHT22;18508;49.386;8.370;2023-04-01T00:33:44;10.50;99.90
31991;DHT22;18508;49.386;8.370;2023-04-01T00:36:17;10.50;99.90
31991;DHT22;18508;49.386;8.370;2023-04-01T00:38:45;10.50;99.90
31991;DHT22;18508;49.386;8.370;2023-04-01T00:41:14;10.60;99.90
31991;DHT22;18508;49.386;8.370;2023-04-01T00:43:47;10.50;99.90
31991;DHT22;18508;49.386;8.370;2023-04-01T00:46:15;10.50;99.90
31991;DHT22;18508;49.386;8.370;2023-04-01T00:48:46;10.50;99.90
31991;DHT22;18508;49.386;8.370;2023-04-01T00:51:20;10.50;99.90
31991;DHT22;18508;49.386;8.370;2023-04-01T00:53:52;10.50;99.90
31991;DHT22;18508;49.386;8.370;2023-04-01T00:56:24;10.50;99.90
31991;DHT22;18508;49.386;8.370;2023-04-01T00:58:56;10.50;99.90
31991;DHT22;18508;49.386;8.370;2023-04-01T01:01:29;10.50;99.90
31991;DHT22;18508;49.386;8.370;2023-04-01T01:03:58;10.40;99.90
31991;DHT22;18508;49.386;8.370;2023-04-01T01:06:39;10.40;99.90
31991;DHT22;18508;49.386;8.370;2023-04-01T01:09:23;10.50;99.90
31991;DHT22;18508;49.386;8.370;2023-04-01T01:11:57;10.40;99.90
31991;DHT22;18508;49.386;8.370;2023-04-01T01:14:36;10.40;99.90
31991;DHT22;18508;49.386;8.370;2023-04-01T01:17:13;10.40;99.90
31991;DHT22;18508;49.386;8.370;2023-04-01T01:20:19;10.40;99.90
31991;DHT22;18508;49.386;8.370;2023-04-01T01:23:06;10.50;99.90
31991;DHT22;18508;49.386;8.370;2023-04-01T01:25:41;10.40;99.90
31991;DHT22;18508;49.386;8.370;2023-04-01T01:28:25;10.40;99.90
31991;DHT22;18508;49.386;8.370;2023-04-01T01:31:02;10.50;99.90
31991;DHT22;18508;49.386;8.370;2023-04-01T01:33:44;10.50;99.90
31991;DHT22;18508;49.386;8.370;2023-04-01T01:36:18;10.50;99.90
31991;DHT22;18508;49.386;8.370;2023-04-01T01:38:48;10.50;99.90
31991;DHT22;18508;49.386;8.370;2023-04-01T01:41:18;10.50;99.90
31991;DHT22;18508;49.386;8.370;2023-04-01T01:43:50;10.50;99.90
31991;DHT22;18508;49.386;8.370;2023-04-01T01:46:22;10.50;99.90
31991;DHT22;18508;49.386;8.370;2023-04-01T01:48:52;10.50;99.90
31991;DHT22;18508;49.386;8.370;2023-04-01T01:51:23;10.50;99.90
31991;DHT22;18508;49.386;8.370;2023-04-01T01:53:51;10.50;99.90
31991;DHT22;18508;49.386;8.370;2023-04-01T01:56:22;10.50;99.90
31991;DHT22;18508;49.386;8.370;2023-04-01T01:58:53;10.50;99.90
31991;DHT22;18508;49.386;8.370;2023-04-01T02:01:27;10.60;99.90
31991;DHT22;18508;49.386;8.370;2023-04-01T02:03:56;10.60;99.90
31991;DHT22;18508;49.386;8.370;2023-04-01T02:06:29;10.60;99.90
31991;DHT22;18508;49.386;8.370;2023-04-01T02:09:01;10.60;99.90
31991;DHT22;18508;49.386;8.370;2023-04-01T02:11:32;10.60;99.90
31991;DHT22;18508;49.386;8.370;2023-04-01T02:14:05;10.60;99.90
31991;DHT22;18508;49.386;8.370;2023-04-01T02:16:36;10.60;99.90
31991;DHT22;18508;49.386;8.370;2023-04-01T02:19:07;10.60;99.90
31991;DHT22;18508;49.386;8.370;2023-04-01T02:21:39;11.10;99.90
31991;DHT22;18508;49.386;8.370;2023-04-01T02:24:11;10.60;99.90
31991;DHT22;18508;49.386;8.370;2023-04-01T02:26:41;10.50;99.90
31991;DHT22;18508;49.386;8.370;2023-04-01T02:29:11;10.50;99.90
31991;DHT22;18508;49.386;8.370;2023-04-01T02:31:41;10.50;99.90
31991;DHT22;18508;49.386;8.370;2023-04-01T02:34:10;10.40;99.90
31991;DHT22;18508;49.386;8.370;2023-04-01T02:36:40;10.40;99.90
31991;DHT22;18508;49.386;8.370;2023-04-01T02:39:09;10.40;99.90
31991;DHT22;18508;49.386;8.370;2023-04-01T02:41:41;10.20;99.90
31991;DHT22;18508;49.386;8.370;2023-04-01T02:44:11;10.20;99.90
31991;DHT22;18508;49.386;8.370;2023-04-01T02:46:40;10.20;99.90
31991;DHT22;18508;49.386;8.370;2023-04-01T02:49:08;10.20;99.90
31991;DHT22;18508;49.386;8.370;2023-04-01T02:51:37;10.20;99.90
31991;DHT22;18508;49.386;8.370;2023-04-01T02:54:07;10.20;99.90
31991;DHT22;18508;49.386;8.370;2023-04-01T02:56:35;10.20;99.90
31991;DHT22;18508;49.386;8.370;2023-04-01T02:59:03;10.20;99.90
31991;DHT22;18508;49.386;8.370;2023-04-01T03:01:31;10.20;99.90
31991;DHT22;18508;49.386;8.370;2023-04-01T03:04:00;10.20;99.90
31991;DHT22;18508;49.386;8.370;2023-04-01T03:06:29;10.20;99.90
31991;DHT22;18508;49.386;8.370;2023-04-01T03:08:57;10.20;99.90
31991;DHT22;18508;49.386;8.370;2023-04-01T03:11:27;10.20;99.90
31991;DHT22;18508;49.386;8.370;2023-04-01T03:13:55;10.20;99.90
31991;DHT22;18508;49.386;8.370;2023-04-01T03:16:23;10.20;99.90
31991;DHT22;18508;49.386;8.370;2023-04-01T03:18:51;10.20;99.90
31991;DHT22;18508;49.386;8.370;2023-04-01T03:21:22;10.20;99.90
31991;DHT22;18508;49.386;8.370;2023-04-01T03:23:50;10.20;99.90
31991;DHT22;18508;49.386;8.370;2023-04-01T03:26:19;10.10;99.90
31991;DHT22;18508;49.386;8.370;2023-04-01T03:28:49;10.10;99.90
31991;DHT22;18508;49.386;8.370;2023-04-01T03:31:17;10.10;99.90
31991;DHT22;18508;49.386;8.370;2023-04-01T03:33:48;10.10;99.90
31991;DHT22;18508;49.386;8.370;2023-04-01T03:36:17;10.10;99.90
31991;DHT22;18508;49.386;8.370;2023-04-01T03:38:45;10.20;99.90
31991;DHT22;18508;49.386;8.370;2023-04-01T03:41:14;10.20;99.90
31991;DHT22;18508;49.386;8.370;2023-04-01T03:43:44;10.30;99.90
31991;DHT22;18508;49.386;8.370;2023-04-01T03:46:17;10.30;99.90
31991;DHT22;18508;49.386;8.370;2023-04-01T03:48:45;10.20;99.90
31991;DHT22;18508;49.386;8.370;2023-04-01T03:51:13;10.10;99.90
31991;DHT22;18508;49.386;8.370;2023-04-01T03:53:42;10.20;99.90
31991;DHT22;18508;49.386;8.370;2023-04-01T03:56:10;10.20;99.90
31991;DHT22;18508;49.386;8.370;2023-04-01T03:58:39;10.20;99.90
31991;DHT22;18508;49.386;8.370;2023-04-01T04:01:16;10.20;99.90
31991;DHT22;18508;49.386;8.370;2023-04-01T04:03:45;10.20;99.90
31991;DHT22;18508;49.386;8.370;2023-04-01T04:06:14;10.30;99.90
31991;DHT22;18508;49.386;8.370;2023-04-01T04:08:42;10.20;99.90
31991;DHT22;18508;49.386;8.370;2023-04-01T04:11:11;10.20;99.90
31991;DHT22;18508;49.386;8.370;2023-04-01T04:13:40;10.30;99.90
31991;DHT22;18508;49.386;8.370;2023-04-01T04:16:08;10.30;99.90
31991;DHT22;18508;49.386;8.370;2023-04-01T04:18:40;10.30;99.90
31991;DHT22;18508;49.386;8.370;2023-04-01T04:21:12;10.30;99.90
31991;DHT22;18508;49.386;8.370;2023-04-01T04:23:40;10.30;99.90
31991;DHT22;18508;49.386;8.370;2023-04-01T04:26:11;10.40;99.90
31991;DHT22;18508;49.386;8.370;2023-04-01T04:28:40;10.40;99.90
31991;DHT22;18508;49.386;8.370;2023-04-01T04:31:10;10.40;99.90
31991;DHT22;18508;49.386;8.370;2023-04-01T04:33:40;10.40;99.90
31991;DHT22;18508;49.386;8.370;2023-04-01T04:36:08;10.30;99.90
31991;DHT22;18508;49.386;8.370;2023-04-01T04:38:37;10.30;99.90
31991;DHT22;18508;49.386;8.370;2023-04-01T04:41:08;10.20;99.90
31991;DHT22;18508;49.386;8.370;2023-04-01T04:43:37;10.20;99.90
31991;DHT22;18508;49.386;8.370;2023-04-01T04:46:06;10.10;99.90
31991;DHT22;18508;49.386;8.370;2023-04-01T04:48:34;10.10;99.90
31991;DHT22;18508;49.386;8.370;2023-04-01T04:51:03;10.00;99.90
31991;DHT22;18508;49.386;8.370;2023-04-01T04:53:31;10.00;99.90
31991;DHT22;18508;49.386;8.370;2023-04-01T04:55:59;10.00;99.90
31991;DHT22;18508;49.386;8.370;2023-04-01T04:58:28;10.00;99.90
31991;DHT22;18508;49.386;8.370;2023-04-01T05:00:55;10.00;99.90
31991;DHT22;18508;49.386;8.370;2023-04-01T05:03:24;10.00;99.90
31991;DHT22;18508;49.386;8.370;2023-04-01T05:05:54;10.00;99.90
31991;DHT22;18508;49.386;8.370;2023-04-01T05:08:23;10.00;99.90
31991;DHT22;18508;49.386;8.370;2023-04-01T05:10:52;10.00;99.90
31991;DHT22;18508;49.386;8.370;2023-04-01T05:13:20;10.00;99.90
31991;DHT22;18508;49.386;8.370;2023-04-01T05:15:49;10.00;99.90
31991;DHT22;18508;49.386;8.370;2023-04-01T05:18:17;10.00;99.90
31991;DHT22;18508;49.386;8.370;2023-04-01T05:20:47;10.00;99.90
31991;DHT22;18508;49.386;8.370;2023-04-01T05:23:16;10.10;99.90
31991;DHT22;18508;49.386;8.370;2023-04-01T05:25:46;10.10;99.90
31991;DHT22;18508;49.386;8.370;2023-04-01T05:28:14;10.10;99.90
31991;DHT22;18508;49.386;8.370;2023-04-01T05:30:43;10.10;99.90
31991;DHT22;18508;49.386;8.370;2023-04-01T05:33:12;10.10;99.90
31991;DHT22;18508;49.386;8.370;2023-04-01T05:35:40;10.10;99.90
31991;DHT22;18508;49.386;8.370;2023-04-01T05:38:09;10.10;99.90
31991;DHT22;18508;49.386;8.370;2023-04-01T05:40:37;10.10;99.90
31991;DHT22;18508;49.386;8.370;2023-04-01T05:43:07;10.10;99.90
31991;DHT22;18508;49.386;8.370;2023-04-01T05:45:35;10.10;99.90
31991;DHT22;18508;49.386;8.370;2023-04-01T05:48:03;10.10;99.90
31991;DHT22;18508;49.386;8.370;2023-04-01T05:50:32;10.10;99.90
31991;DHT22;18508;49.386;8.370;2023-04-01T05:53:03;10.30;99.90
31991;DHT22;18508;49.386;8.370;2023-04-01T05:55:34;10.00;99.90
31991;DHT22;18508;49.386;8.370;2023-04-01T05:58:04;10.10;99.90
31991;DHT22;18508;49.386;8.370;2023-04-01T06:00:33;10.10;99.90
31991;DHT22;18508;49.386;8.370;2023-04-01T06:03:02;10.10;99.90
31991;DHT22;18508;49.386;8.370;2023-04-01T06:05:36;10.00;99.90
31991;DHT22;18508;49.386;8.370;2023-04-01T06:08:10;10.00;99.90
31991;DHT22;18508;49.386;8.370;2023-04-01T06:10:49;10.00;99.90
31991;DHT22;18508;49.386;8.370;2023-04-01T06:13:24;10.10;99.90
31991;DHT22;18508;49.386;8.370;2023-04-01T06:16:02;10.00;99.90
31991;DHT22;18508;49.386;8.370;2023-04-01T06:18:54;10.10;99.90
31991;DHT22;18508;49.386;8.370;2023-04-01T06:21:47;10.10;99.90
31991;DHT22;18508;49.386;8.370;2023-04-01T06:24:37;10.10;99.90
31991;DHT22;18508;49.386;8.370;2023-04-01T06:27:19;10.10;99.90
31991;DHT22;18508;49.386;8.370;2023-04-01T06:30:02;10.10;99.90
31991;DHT22;18508;49.386;8.370;2023-04-01T06:32:50;10.10;99.90
31991;DHT22;18508;49.386;8.370;2023-04-01T06:35:49;10.10;99.90
31991;DHT22;18508;49.386;8.370;2023-04-01T06:38:34;10.10;99.90
31991;DHT22;18508;49.386;8.370;2023-04-01T06:41:23;10.20;99.90
31991;DHT22;18508;49.386;8.370;2023-04-01T06:44:00;10.10;99.90
31991;DHT22;18508;49.386;8.370;2023-04-01T06:46:42;10.20;99.90
31991;DHT22;18508;49.386;8.370;2023-04-01T06:49:36;10.20;99.90
31991;DHT22;18508;49.386;8.370;2023-04-01T06:52:15;10.30;99.90
31991;DHT22;18508;49.386;8.370;2023-04-01T06:54:49;10.40;99.90
31991;DHT22;18508;49.386;8.370;2023-04-01T06:57:24;10.40;99.90
31991;DHT22;18508;49.386;8.370;2023-04-01T06:59:57;10.50;99.90
31991;DHT22;18508;49.386;8.370;2023-04-01T07:02:34;10.50;99.90
31991;DHT22;18508;49.386;8.370;2023-04-01T07:05:05;10.60;99.90
31991;DHT22;18508;49.386;8.370;2023-04-01T07:07:37;10.50;99.90
31991;DHT22;18508;49.386;8.370;2023-04-01T07:10:12;10.50;99.90
31991;DHT22;18508;49.386;8.370;2023-04-01T07:12:48;10.50;99.90
31991;DHT22;18508;49.386;8.370;2023-04-01T07:15:20;10.50;99.90
31991;DHT22;18508;49.386;8.370;2023-04-01T07:17:53;10.50;99.90
31991;DHT22;18508;49.386;8.370;2023-04-01T07:20:27;10.40;99.90
31991;DHT22;18508;49.386;8.370;2023-04-01T07:22:57;10.50;99.90
31991;DHT22;18508;49.386;8.370;2023-04-01T07:25:30;10.60;99.90
31991;DHT22;18508;49.386;8.370;2023-04-01T07:28:03;10.50;99.90
31991;DHT22;18508;49.386;8.370;2023-04-01T07:30:43;10.50;99.90
31991;DHT22;18508;49.386;8.370;2023-04-01T07:33:15;10.70;99.90
31991;DHT22;18508;49.386;8.370;2023-04-01T07:35:54;10.70;99.90
31991;DHT22;18508;49.386;8.370;2023-04-01T07:38:32;10.80;99.90
31991;DHT22;18508;49.386;8.370;2023-04-01T07:41:07;10.90;99.90
31991;DHT22;18508;49.386;8.370;2023-04-01T07:43:55;10.90;99.90
31991;DHT22;18508;49.386;8.370;2023-04-01T07:49:39;11.20;99.90
31991;DHT22;18508;49.386;8.370;2023-04-01T07:52:20;11.10;99.90
31991;DHT22;18508;49.386;8.370;2023-04-01T07:54:55;11.30;99.90
31991;DHT22;18508;49.386;8.370;2023-04-01T07:57:30;11.30;99.90
31991;DHT22;18508;49.386;8.370;2023-04-01T08:00:08;11.40;99.90
31991;DHT22;18508;49.386;8.370;2023-04-01T08:02:49;11.50;99.90
31991;DHT22;18508;49.386;8.370;2023-04-01T08:05:24;11.70;99.90
31991;DHT22;18508;49.386;8.370;2023-04-01T08:08:03;11.80;99.90
31991;DHT22;18508;49.386;8.370;2023-04-01T08:10:38;11.90;99.90
31991;DHT22;18508;49.386;8.370;2023-04-01T08:13:15;11.90;99.90
31991;DHT22;18508;49.386;8.370;2023-04-01T08:15:53;11.90;99.90
31991;DHT22;18508;49.386;8.370;2023-04-01T08:18:32;11.90;99.90
31991;DHT22;18508;49.386;8.370;2023-04-01T08:21:05;11.80;99.90
31991;DHT22;18508;49.386;8.370;2023-04-01T08:23:41;11.80;99.90
31991;DHT22;18508;49.386;8.370;2023-04-01T08:26:15;11.60;99.90
31991;DHT22;18508;49.386;8.370;2023-04-01T08:28:54;11.60;99.90
31991;DHT22;18508;49.386;8.370;2023-04-01T08:31:30;11.50;99.90
31991;DHT22;18508;49.386;8.370;2023-04-01T08:34:02;11.40;99.90
31991;DHT22;18508;49.386;8.370;2023-04-01T08:36:37;11.40;99.90
31991;DHT22;18508;49.386;8.370;2023-04-01T08:39:09;11.30;99.90
31991;DHT22;18508;49.386;8.370;2023-04-01T08:44:57;11.10;99.90
31991;DHT22;18508;49.386;8.370;2023-04-01T08:53:59;11.20;99.90
31991;DHT22;18508;49.386;8.370;2023-04-01T08:56:36;11.20;99.90
31991;DHT22;18508;49.386;8.370;2023-04-01T08:59:19;11.40;99.90
31991;DHT22;18508;49.386;8.370;2023-04-01T09:02:21;11.40;99.90
31991;DHT22;18508;49.386;8.370;2023-04-01T09:05:22;11.50;99.90
31991;DHT22;18508;49.386;8.370;2023-04-01T09:08:01;11.60;99.90
31991;DHT22;18508;49.386;8.370;2023-04-01T09:10:55;11.60;99.90
31991;DHT22;18508;49.386;8.370;2023-04-01T09:13:36;11.60;99.90
31991;DHT22;18508;49.386;8.370;2023-04-01T09:16:28;11.70;99.90
31991;DHT22;18508;49.386;8.370;2023-04-01T09:19:24;11.80;99.90
31991;DHT22;18508;49.386;8.370;2023-04-01T09:25:15;11.90;99.90
31991;DHT22;18508;49.386;8.370;2023-04-01T09:27:56;12.00;99.90
31991;DHT22;18508;49.386;8.370;2023-04-01T09:34:03;12.20;99.90
31991;DHT22;18508;49.386;8.370;2023-04-01T09:36:43;12.40;99.90
31991;DHT22;18508;49.386;8.370;2023-04-01T09:39:26;12.60;99.90
31991;DHT22;18508;49.386;8.370;2023-04-01T09:45:05;12.50;99.90
31991;DHT22;18508;49.386;8.370;2023-04-01T09:47:48;12.40;99.90
31991;DHT22;18508;49.386;8.370;2023-04-01T09:50:30;12.50;99.90
31991;DHT22;18508;49.386;8.370;2023-04-01T09:53:11;12.60;99.90
31991;DHT22;18508;49.386;8.370;2023-04-01T09:56:09;12.70;99.90
31991;DHT22;18508;49.386;8.370;2023-04-01T09:59:02;12.60;99.90
31991;DHT22;18508;49.386;8.370;2023-04-01T10:01:45;12.60;99.90
31991;DHT22;18508;49.386;8.370;2023-04-01T10:04:59;12.70;99.90
31991;DHT22;18508;49.386;8.370;2023-04-01T10:10:53;13.00;99.90
31991;DHT22;18508;49.386;8.370;2023-04-01T10:13:56;12.90;99.90
31991;DHT22;18508;49.386;8.370;2023-04-01T10:17:23;13.00;99.90
31991;DHT22;18508;49.386;8.370;2023-04-01T10:20:13;12.90;99.90
31991;DHT22;18508;49.386;8.370;2023-04-01T10:23:07;12.90;99.90
31991;DHT22;18508;49.386;8.370;2023-04-01T10:26:09;12.80;99.90
31991;DHT22;18508;49.386;8.370;2023-04-01T10:35:10;13.00;99.90
31991;DHT22;18508;49.386;8.370;2023-04-01T10:38:12;13.00;99.90
31991;DHT22;18508;49.386;8.370;2023-04-01T10:40:57;13.00;99.90
31991;DHT22;18508;49.386;8.370;2023-04-01T10:50:44;13.00;99.90
31991;DHT22;18508;49.386;8.370;2023-04-01T10:53:34;12.90;99.90
31991;DHT22;18508;49.386;8.370;2023-04-01T10:56:40;12.70;99.90
31991;DHT22;18508;49.386;8.370;2023-04-01T11:02:45;12.90;99.90
31991;DHT22;18508;49.386;8.370;2023-04-01T11:09:15;12.90;99.90
31991;DHT22;18508;49.386;8.370;2023-04-01T11:12:09;12.90;99.90
31991;DHT22;18508;49.386;8.370;2023-04-01T11:15:10;13.00;99.90
31991;DHT22;18508;49.386;8.370;2023-04-01T11:18:04;13.10;99.90
31991;DHT22;18508;49.386;8.370;2023-04-01T11:24:09;13.10;82.30
31991;DHT22;18508;49.386;8.370;2023-04-01T11:26:50;13.00;94.00
31991;DHT22;18508;49.386;8.370;2023-04-01T11:29:36;13.00;99.90
31991;DHT22;18508;49.386;8.370;2023-04-01T11:35:25;13.10;99.90
31991;DHT22;18508;49.386;8.370;2023-04-01T11:38:06;13.20;99.90
31991;DHT22;18508;49.386;8.370;2023-04-01T11:40:45;13.20;99.50
31991;DHT22;18508;49.386;8.370;2023-04-01T11:43:21;13.10;63.80
31991;DHT22;18508;49.386;8.370;2023-04-01T11:46:05;13.20;76.80
31991;DHT22;18508;49.386;8.370;2023-04-01T11:48:48;13.00;48.60
31991;DHT22;18508;49.386;8.370;2023-04-01T11:51:22;12.90;69.50
31991;DHT22;18508;49.386;8.370;2023-04-01T11:54:01;12.90;37.20
31991;DHT22;18508;49.386;8.370;2023-04-01T11:56:44;13.00;1.00
31991;DHT22;18508;49.386;8.370;2023-04-01T11:59:48;13.00;1.00
31991;DHT22;18508;49.386;8.370;2023-04-01T12:02:23;13.00;73.00
31991;DHT22;18508;49.386;8.370;2023-04-01T12:05:00;13.10;44.50
31991;DHT22;18508;49.386;8.370;2023-04-01T12:10:27;13.00;96.80
31991;DHT22;18508;49.386;8.370;2023-04-01T12:13:11;13.00;1.40
31991;DHT22;18508;49.386;8.370;2023-04-01T12:15:58;13.00;9.90
31991;DHT22;18508;49.386;8.370;2023-04-01T12:18:35;12.80;7.00
31991;DHT22;18508;49.386;8.370;2023-04-01T12:21:17;12.90;1.30
31991;DHT22;18508;49.386;8.370;2023-04-01T12:24:18;12.90;9.60
31991;DHT22;18508;49.386;8.370;2023-04-01T12:33:01;12.90;1.00
31991;DHT22;18508;49.386;8.370;2023-04-01T12:35:43;12.90;1.00
31991;DHT22;18508;49.386;8.370;2023-04-01T12:38:20;13.00;1.00
31991;DHT22;18508;49.386;8.370;2023-04-01T12:41:06;13.00;21.50
31991;DHT22;18508;49.386;8.370;2023-04-01T12:44:07;13.10;1.00
31991;DHT22;18508;49.386;8.370;2023-04-01T12:46:56;13.30;1.00
31991;DHT22;18508;49.386;8.370;2023-04-01T12:49:46;13.20;1.00
31991;DHT22;18508;49.386;8.370;2023-04-01T12:52:26;13.10;1.00
31991;DHT22;18508;49.386;8.370;2023-04-01T13:01:37;13.20;1.00
31991;DHT22;18508;49.386;8.370;2023-04-01T13:04:34;13.10;1.00
31991;DHT22;18508;49.386;8.370;2023-04-01T13:10:01;13.00;1.00
31991;DHT22;18508;49.386;8.370;2023-04-01T13:12:40;12.90;1.00
31991;DHT22;18508;49.386;8.370;2023-04-01T13:15:29;12.90;1.00
31991;DHT22;18508;49.386;8.370;2023-04-01T13:18:06;13.00;1.00
31991;DHT22;18508;49.386;8.370;2023-04-01T13:20:44;13.00;1.00
31991;DHT22;18508;49.386;8.370;2023-04-01T13:23:20;13.00;1.00
31991;DHT22;18508;49.386;8.370;2023-04-01T13:25:57;13.00;1.00
31991;DHT22;18508;49.386;8.370;2023-04-01T13:28:43;12.90;1.00
31991;DHT22;18508;49.386;8.370;2023-04-01T13:31:35;12.90;1.00
31991;DHT22;18508;49.386;8.370;2023-04-01T13:34:21;12.90;1.00
31991;DHT22;18508;49.386;8.370;2023-04-01T13:37:04;12.80;1.00
31991;DHT22;18508;49.386;8.370;2023-04-01T13:42:29;13.00;1.00
31991;DHT22;18508;49.386;8.370;2023-04-01T13:45:08;13.00;1.00
31991;DHT22;18508;49.386;8.370;2023-04-01T13:48:12;13.10;1.00
31991;DHT22;18508;49.386;8.370;2023-04-01T13:51:05;13.30;1.00
31991;DHT22;18508;49.386;8.370;2023-04-01T13:53:58;13.30;1.00
31991;DHT22;18508;49.386;8.370;2023-04-01T13:56:42;13.40;1.00
31991;DHT22;18508;49.386;8.370;2023-04-01T13:59:35;13.40;1.00
31991;DHT22;18508;49.386;8.370;2023-04-01T14:02:20;13.30;1.00
31991;DHT22;18508;49.386;8.370;2023-04-01T14:05:09;13.20;1.00
31991;DHT22;18508;49.386;8.370;2023-04-01T14:07:57;13.10;1.00
31991;DHT22;18508;49.386;8.370;2023-04-01T14:10:34;13.10;1.00
31991;DHT22;18508;49.386;8.370;2023-04-01T14:13:09;13.10;1.00
31991;DHT22;18508;49.386;8.370;2023-04-01T14:15:56;13.00;1.00
31991;DHT22;18508;49.386;8.370;2023-04-01T14:18:42;13.00;1.00
31991;DHT22;18508;49.386;8.370;2023-04-01T14:21:21;12.90;1.00
31991;DHT22;18508;49.386;8.370;2023-04-01T14:24:21;12.80;1.00
31991;DHT22;18508;49.386;8.370;2023-04-01T14:30:01;12.90;1.00
31991;DHT22;18508;49.386;8.370;2023-04-01T14:32:42;12.80;1.00
31991;DHT22;18508;49.386;8.370;2023-04-01T14:35:25;12.80;1.00
31991;DHT22;18508;49.386;8.370;2023-04-01T14:38:10;12.70;1.00
31991;DHT22;18508;49.386;8.370;2023-04-01T14:40:58;12.70;1.00
31991;DHT22;18508;49.386;8.370;2023-04-01T14:46:44;12.70;1.00
31991;DHT22;18508;49.386;8.370;2023-04-01T14:49:20;12.70;1.00
31991;DHT22;18508;49.386;8.370;2023-04-01T14:51:52;12.70;1.00
31991;DHT22;18508;49.386;8.370;2023-04-01T14:54:30;12.60;1.00
31991;DHT22;18508;49.386;8.370;2023-04-01T14:57:05;12.60;1.00
31991;DHT22;18508;49.386;8.370;2023-04-01T14:59:45;12.50;1.00
31991;DHT22;18508;49.386;8.370;2023-04-01T15:02:30;12.60;1.00
31991;DHT22;18508;49.386;8.370;2023-04-01T15:05:10;12.50;1.00
31991;DHT22;18508;49.386;8.370;2023-04-01T15:07:56;12.50;1.00
31991;DHT22;18508;49.386;8.370;2023-04-01T15:10:53;12.50;1.00
31991;DHT22;18508;49.386;8.370;2023-04-01T15:13:34;12.50;1.00
31991;DHT22;18508;49.386;8.370;2023-04-01T15:16:13;12.50;1.00
31991;DHT22;18508;49.386;8.370;2023-04-01T15:18:50;12.50;1.00
31991;DHT22;18508;49.386;8.370;2023-04-01T15:21:44;12.50;1.00
31991;DHT22;18508;49.386;8.370;2023-04-01T15:24:21;12.50;56.70
31991;DHT22;18508;49.386;8.370;2023-04-01T15:27:01;12.40;60.50
31991;DHT22;18508;49.386;8.370;2023-04-01T15:29:59;12.30;46.80
31991;DHT22;18508;49.386;8.370;2023-04-01T15:32:44;12.20;30.50
31991;DHT22;18508;49.386;8.370;2023-04-01T15:35:30;12.20;91.90
31991;DHT22;18508;49.386;8.370;2023-04-01T15:38:05;12.20;54.90
31991;DHT22;18508;49.386;8.370;2023-04-01T15:40:43;12.20;48.80
31991;DHT22;18508;49.386;8.370;2023-04-01T15:43:22;12.10;41.10
31991;DHT22;18508;49.386;8.370;2023-04-01T15:45:59;12.20;52.60
31991;DHT22;18508;49.386;8.370;2023-04-01T15:48:55;12.30;39.10
31991;DHT22;18508;49.386;8.370;2023-04-01T15:51:35;12.40;47.70
31991;DHT22;18508;49.386;8.370;2023-04-01T15:57:20;12.40;10.70
31991;DHT22;18508;49.386;8.370;2023-04-01T16:02:47;12.50;1.00
31991;DHT22;18508;49.386;8.370;2023-04-01T16:05:27;12.50;1.00
31991;DHT22;18508;49.386;8.370;2023-04-01T16:08:10;12.50;1.00
31991;DHT22;18508;49.386;8.370;2023-04-01T16:11:13;12.40;1.00
31991;DHT22;18508;49.386;8.370;2023-04-01T16:13:48;12.40;1.00
31991;DHT22;18508;49.386;8.370;2023-04-01T16:16:28;12.40;1.00
31991;DHT22;18508;49.386;8.370;2023-04-01T16:19:12;12.40;99.90
31991;DHT22;18508;49.386;8.370;2023-04-01T16:21:48;12.40;99.90
31991;DHT22;18508;49.386;8.370;2023-04-01T16:24:24;12.40;99.90
31991;DHT22;18508;49.386;8.370;2023-04-01T16:27:02;12.30;99.90
31991;DHT22;18508;49.386;8.370;2023-04-01T16:29:38;12.30;1.00
31991;DHT22;18508;49.386;8.370;2023-04-01T16:32:34;12.20;99.90
31991;DHT22;18508;49.386;8.370;2023-04-01T16:35:25;12.30;1.00
31991;DHT22;18508;49.386;8.370;2023-04-01T16:38:01;12.30;1.00
31991;DHT22;18508;49.386;8.370;2023-04-01T16:40:41;12.30;1.00
31991;DHT22;18508;49.386;8.370;2023-04-01T16:43:13;12.30;99.90
31991;DHT22;18508;49.386;8.370;2023-04-01T16:45:51;12.30;99.90
31991;DHT22;18508;49.386;8.370;2023-04-01T16:48:27;12.30;1.00
31991;DHT22;18508;49.386;8.370;2023-04-01T16:50:59;12.30;1.00
31991;DHT22;18508;49.386;8.370;2023-04-01T16:53:37;12.30;1.00
31991;DHT22;18508;49.386;8.370;2023-04-01T16:56:12;12.40;1.00
31991;DHT22;18508;49.386;8.370;2023-04-01T16:58:43;12.30;99.90
31991;DHT22;18508;49.386;8.370;2023-04-01T17:01:20;12.40;99.90
31991;DHT22;18508;49.386;8.370;2023-04-01T17:03:52;12.50;99.90
31991;DHT22;18508;49.386;8.370;2023-04-01T17:06:28;12.50;99.90
31991;DHT22;18508;49.386;8.370;2023-04-01T17:11:57;12.60;1.00
31991;DHT22;18508;49.386;8.370;2023-04-01T17:14:34;12.50;1.00
31991;DHT22;18508;49.386;8.370;2023-04-01T17:17:13;12.70;1.00
31991;DHT22;18508;49.386;8.370;2023-04-01T17:20:10;12.60;1.00
31991;DHT22;18508;49.386;8.370;2023-04-01T17:22:49;12.60;1.00
31991;DHT22;18508;49.386;8.370;2023-04-01T17:25:38;12.50;1.00
31991;DHT22;18508;49.386;8.370;2023-04-01T17:28:20;12.40;1.00
31991;DHT22;18508;49.386;8.370;2023-04-01T17:30:59;12.40;1.00
31991;DHT22;18508;49.386;8.370;2023-04-01T17:33:39;12.30;1.00
31991;DHT22;18508;49.386;8.370;2023-04-01T17:36:16;12.10;1.00
31991;DHT22;18508;49.386;8.370;2023-04-01T17:39:05;12.00;1.00
31991;DHT22;18508;49.386;8.370;2023-04-01T17:41:45;11.90;1.00
31991;DHT22;18508;49.386;8.370;2023-04-01T17:44:28;11.80;1.00
31991;DHT22;18508;49.386;8.370;2023-04-01T17:47:12;11.70;1.00
31991;DHT22;18508;49.386;8.370;2023-04-01T17:49:52;11.70;1.00
31991;DHT22;18508;49.386;8.370;2023-04-01T17:52:27;11.70;1.00
31991;DHT22;18508;49.386;8.370;2023-04-01T17:55:15;11.60;1.00
31991;DHT22;18508;49.386;8.370;2023-04-01T17:57:54;11.60;1.00
31991;DHT22;18508;49.386;8.370;2023-04-01T18:00:29;11.50;1.00
31991;DHT22;18508;49.386;8.370;2023-04-01T18:03:20;11.50;1.00
31991;DHT22;18508;49.386;8.370;2023-04-01T18:06:01;11.50;1.00
31991;DHT22;18508;49.386;8.370;2023-04-01T18:08:56;11.40;1.00
31991;DHT22;18508;49.386;8.370;2023-04-01T18:11:36;11.40;1.00